sensor_id;sensor_type;location;lat;lon;timestamp;P1;durP1;ratioP1;P2;durP2;ratioP2
41946;SDS011;27638;42.184;24.848;2022-12-29T00:01:17;18.33;;;11.95;;
41946;SDS011;27638;42.184;24.848;2022-12-29T00:03:45;18.10;;;11.20;;
41946;SDS011;27638;42.184;24.848;2022-12-29T00:06:11;24.55;;;14.52;;
41946;SDS011;27638;42.184;24.848;2022-12-29T00:08:36;260.70;;;84.68;;
41946;SDS011;27638;42.184;24.848;2022-12-29T00:11:08;49.85;;;24.77;;
41946;SDS011;27638;42.184;24.848;2022-12-29T00:13:36;42.80;;;24.15;;
41946;SDS011;27638;42.184;24.848;2022-12-29T00:16:20;30.75;;;18.00;;
41946;SDS011;27638;42.184;24.848;2022-12-29T00:18:46;28.13;;;16.27;;
41946;SDS011;27638;42.184;24.848;2022-12-29T00:21:14;25.23;;;17.13;;
41946;SDS011;27638;42.184;24.848;2022-12-29T00:24:00;25.13;;;16.45;;
41946;SDS011;27638;42.184;24.848;2022-12-29T00:26:46;27.00;;;17.00;;
41946;SDS011;27638;42.184;24.848;2022-12-29T00:29:31;24.27;;;15.50;;
41946;SDS011;27638;42.184;24.848;2022-12-29T00:32:15;22.92;;;16.00;;
41946;SDS011;27638;42.184;24.848;2022-12-29T00:34:59;22.60;;;15.20;;
41946;SDS011;27638;42.184;24.848;2022-12-29T00:37:35;25.25;;;19.02;;
41946;SDS011;27638;42.184;24.848;2022-12-29T00:40:22;26.48;;;17.90;;
41946;SDS011;27638;42.184;24.848;2022-12-29T00:43:22;26.38;;;15.82;;
41946;SDS011;27638;42.184;24.848;2022-12-29T00:46:06;24.58;;;15.00;;
41946;SDS011;27638;42.184;24.848;2022-12-29T00:48:31;26.00;;;14.88;;
41946;SDS011;27638;42.184;24.848;2022-12-29T00:51:16;26.75;;;15.30;;
41946;SDS011;27638;42.184;24.848;2022-12-29T00:53:41;23.27;;;14.88;;
41946;SDS011;27638;42.184;24.848;2022-12-29T00:56:07;26.38;;;16.08;;
41946;SDS011;27638;42.184;24.848;2022-12-29T00:58:33;34.90;;;18.10;;
41946;SDS011;27638;42.184;24.848;2022-12-29T01:01:05;31.58;;;18.40;;
41946;SDS011;27638;42.184;24.848;2022-12-29T01:03:32;39.78;;;22.20;;
41946;SDS011;27638;42.184;24.848;2022-12-29T01:06:02;40.10;;;23.38;;
41946;SDS011;27638;42.184;24.848;2022-12-29T01:08:28;44.38;;;25.50;;
41946;SDS011;27638;42.184;24.848;2022-12-29T01:11:01;32.88;;;19.02;;
41946;SDS011;27638;42.184;24.848;2022-12-29T01:13:37;27.70;;;18.15;;
41946;SDS011;27638;42.184;24.848;2022-12-29T01:16:07;30.33;;;18.67;;
41946;SDS011;27638;42.184;24.848;2022-12-29T01:18:32;27.27;;;16.80;;
41946;SDS011;27638;42.184;24.848;2022-12-29T01:21:02;29.20;;;16.55;;
41946;SDS011;27638;42.184;24.848;2022-12-29T01:23:29;27.58;;;17.10;;
41946;SDS011;27638;42.184;24.848;2022-12-29T01:25:55;28.35;;;16.20;;
41946;SDS011;27638;42.184;24.848;2022-12-29T01:28:21;26.60;;;16.30;;
41946;SDS011;27638;42.184;24.848;2022-12-29T01:30:47;26.73;;;16.13;;
41946;SDS011;27638;42.184;24.848;2022-12-29T01:33:13;24.98;;;15.15;;
41946;SDS011;27638;42.184;24.848;2022-12-29T01:35:38;30.05;;;16.83;;
41946;SDS011;27638;42.184;24.848;2022-12-29T01:38:04;26.42;;;16.33;;
41946;SDS011;27638;42.184;24.848;2022-12-29T01:40:29;29.67;;;17.52;;
41946;SDS011;27638;42.184;24.848;2022-12-29T01:42:55;31.05;;;17.48;;
41946;SDS011;27638;42.184;24.848;2022-12-29T01:45:20;27.83;;;15.77;;
41946;SDS011;27638;42.184;24.848;2022-12-29T01:47:56;23.95;;;14.55;;
41946;SDS011;27638;42.184;24.848;2022-12-29T01:50:37;23.95;;;14.15;;
41946;SDS011;27638;42.184;24.848;2022-12-29T01:53:08;24.02;;;13.75;;
41946;SDS011;27638;42.184;24.848;2022-12-29T01:55:53;24.55;;;14.05;;
41946;SDS011;27638;42.184;24.848;2022-12-29T01:58:21;23.23;;;13.88;;
41946;SDS011;27638;42.184;24.848;2022-12-29T02:00:49;21.10;;;13.05;;
41946;SDS011;27638;42.184;24.848;2022-12-29T02:03:15;21.77;;;12.98;;
41946;SDS011;27638;42.184;24.848;2022-12-29T02:08:17;22.70;;;13.52;;
41946;SDS011;27638;42.184;24.848;2022-12-29T02:10:45;20.77;;;13.90;;
41946;SDS011;27638;42.184;24.848;2022-12-29T02:13:14;19.05;;;13.05;;
41946;SDS011;27638;42.184;24.848;2022-12-29T02:18:25;22.17;;;12.98;;
41946;SDS011;27638;42.184;24.848;2022-12-29T02:32:11;19.95;;;14.18;;
41946;SDS011;27638;42.184;24.848;2022-12-29T02:45:44;24.05;;;14.30;;
41946;SDS011;27638;42.184;24.848;2022-12-29T02:50:57;22.35;;;13.82;;
41946;SDS011;27638;42.184;24.848;2022-12-29T02:53:26;23.45;;;15.05;;
41946;SDS011;27638;42.184;24.848;2022-12-29T02:56:12;23.90;;;13.77;;
41946;SDS011;27638;42.184;24.848;2022-12-29T02:58:38;26.90;;;15.48;;
41946;SDS011;27638;42.184;24.848;2022-12-29T03:06:50;45.30;;;22.55;;
41946;SDS011;27638;42.184;24.848;2022-12-29T03:15:24;34.53;;;17.00;;
41946;SDS011;27638;42.184;24.848;2022-12-29T03:18:21;24.75;;;13.98;;
41946;SDS011;27638;42.184;24.848;2022-12-29T03:21:34;29.50;;;17.10;;
41946;SDS011;27638;42.184;24.848;2022-12-29T03:24:12;54.38;;;25.67;;
41946;SDS011;27638;42.184;24.848;2022-12-29T03:26:38;26.52;;;15.02;;
41946;SDS011;27638;42.184;24.848;2022-12-29T03:29:06;23.33;;;13.90;;
41946;SDS011;27638;42.184;24.848;2022-12-29T03:31:34;23.10;;;14.43;;
41946;SDS011;27638;42.184;24.848;2022-12-29T03:34:01;32.67;;;16.08;;
41946;SDS011;27638;42.184;24.848;2022-12-29T03:36:32;24.52;;;14.35;;
41946;SDS011;27638;42.184;24.848;2022-12-29T03:39:06;20.05;;;12.25;;
41946;SDS011;27638;42.184;24.848;2022-12-29T03:41:36;20.27;;;13.43;;
41946;SDS011;27638;42.184;24.848;2022-12-29T03:44:05;23.27;;;12.23;;
41946;SDS011;27638;42.184;24.848;2022-12-29T03:46:31;21.90;;;12.48;;
41946;SDS011;27638;42.184;24.848;2022-12-29T03:48:57;16.58;;;11.30;;
41946;SDS011;27638;42.184;24.848;2022-12-29T03:51:22;20.52;;;12.20;;
41946;SDS011;27638;42.184;24.848;2022-12-29T03:53:48;15.38;;;9.93;;
41946;SDS011;27638;42.184;24.848;2022-12-29T03:56:13;19.15;;;12.18;;
41946;SDS011;27638;42.184;24.848;2022-12-29T03:58:39;24.95;;;12.82;;
41946;SDS011;27638;42.184;24.848;2022-12-29T04:01:04;19.50;;;10.95;;
41946;SDS011;27638;42.184;24.848;2022-12-29T04:03:29;15.70;;;10.00;;
41946;SDS011;27638;42.184;24.848;2022-12-29T04:05:55;16.67;;;10.25;;
41946;SDS011;27638;42.184;24.848;2022-12-29T04:08:20;16.20;;;10.30;;
41946;SDS011;27638;42.184;24.848;2022-12-29T04:10:47;19.08;;;11.25;;
41946;SDS011;27638;42.184;24.848;2022-12-29T04:13:13;17.77;;;11.73;;
41946;SDS011;27638;42.184;24.848;2022-12-29T04:15:39;19.20;;;12.10;;
41946;SDS011;27638;42.184;24.848;2022-12-29T04:18:04;26.67;;;13.73;;
41946;SDS011;27638;42.184;24.848;2022-12-29T04:20:30;21.15;;;13.30;;
41946;SDS011;27638;42.184;24.848;2022-12-29T04:23:14;18.13;;;11.43;;
41946;SDS011;27638;42.184;24.848;2022-12-29T04:25:39;20.60;;;13.27;;
41946;SDS011;27638;42.184;24.848;2022-12-29T04:28:05;25.63;;;13.68;;
41946;SDS011;27638;42.184;24.848;2022-12-29T04:30:32;22.05;;;12.93;;
41946;SDS011;27638;42.184;24.848;2022-12-29T04:32:58;27.75;;;16.08;;
41946;SDS011;27638;42.184;24.848;2022-12-29T04:35:23;24.00;;;16.05;;
41946;SDS011;27638;42.184;24.848;2022-12-29T04:37:49;23.55;;;14.32;;
41946;SDS011;27638;42.184;24.848;2022-12-29T04:40:14;25.10;;;15.07;;
41946;SDS011;27638;42.184;24.848;2022-12-29T04:42:40;19.80;;;13.73;;
41946;SDS011;27638;42.184;24.848;2022-12-29T04:45:05;35.17;;;19.13;;
41946;SDS011;27638;42.184;24.848;2022-12-29T04:47:31;31.33;;;16.48;;
41946;SDS011;27638;42.184;24.848;2022-12-29T04:49:57;25.83;;;17.23;;
41946;SDS011;27638;42.184;24.848;2022-12-29T04:52:22;31.70;;;17.90;;
41946;SDS011;27638;42.184;24.848;2022-12-29T04:54:47;30.52;;;18.40;;
41946;SDS011;27638;42.184;24.848;2022-12-29T04:57:13;29.38;;;17.73;;
41946;SDS011;27638;42.184;24.848;2022-12-29T04:59:38;33.63;;;18.60;;
41946;SDS011;27638;42.184;24.848;2022-12-29T05:02:04;44.15;;;20.05;;
41946;SDS011;27638;42.184;24.848;2022-12-29T05:04:29;25.02;;;15.13;;
41946;SDS011;27638;42.184;24.848;2022-12-29T05:06:54;27.48;;;15.60;;
41946;SDS011;27638;42.184;24.848;2022-12-29T05:09:20;23.98;;;14.00;;
41946;SDS011;27638;42.184;24.848;2022-12-29T05:11:45;24.23;;;14.82;;
41946;SDS011;27638;42.184;24.848;2022-12-29T05:14:11;27.42;;;16.15;;
41946;SDS011;27638;42.184;24.848;2022-12-29T05:16:36;74.00;;;33.95;;
41946;SDS011;27638;42.184;24.848;2022-12-29T05:19:02;65.00;;;32.90;;
41946;SDS011;27638;42.184;24.848;2022-12-29T05:21:27;41.45;;;24.00;;
41946;SDS011;27638;42.184;24.848;2022-12-29T05:23:52;40.58;;;22.17;;
41946;SDS011;27638;42.184;24.848;2022-12-29T05:26:18;37.92;;;22.42;;
41946;SDS011;27638;42.184;24.848;2022-12-29T05:28:43;43.33;;;25.45;;
41946;SDS011;27638;42.184;24.848;2022-12-29T05:31:09;50.88;;;29.95;;
41946;SDS011;27638;42.184;24.848;2022-12-29T05:33:34;44.92;;;24.58;;
41946;SDS011;27638;42.184;24.848;2022-12-29T05:36:03;41.70;;;22.98;;
41946;SDS011;27638;42.184;24.848;2022-12-29T05:38:32;44.88;;;24.65;;
41946;SDS011;27638;42.184;24.848;2022-12-29T05:40:58;51.03;;;27.73;;
41946;SDS011;27638;42.184;24.848;2022-12-29T05:43:23;52.50;;;29.70;;
41946;SDS011;27638;42.184;24.848;2022-12-29T05:45:49;47.65;;;27.15;;
41946;SDS011;27638;42.184;24.848;2022-12-29T05:48:14;43.75;;;23.77;;
41946;SDS011;27638;42.184;24.848;2022-12-29T05:50:40;38.13;;;18.20;;
41946;SDS011;27638;42.184;24.848;2022-12-29T05:53:06;54.20;;;18.20;;
41946;SDS011;27638;42.184;24.848;2022-12-29T05:55:31;42.75;;;18.88;;
41946;SDS011;27638;42.184;24.848;2022-12-29T05:57:57;52.47;;;19.42;;
41946;SDS011;27638;42.184;24.848;2022-12-29T06:00:22;54.75;;;20.00;;
41946;SDS011;27638;42.184;24.848;2022-12-29T06:02:48;72.45;;;16.00;;
41946;SDS011;27638;42.184;24.848;2022-12-29T06:05:13;54.72;;;16.38;;
41946;SDS011;27638;42.184;24.848;2022-12-29T06:07:39;56.65;;;16.23;;
41946;SDS011;27638;42.184;24.848;2022-12-29T06:10:05;36.50;;;16.33;;
41946;SDS011;27638;42.184;24.848;2022-12-29T06:12:31;54.97;;;19.23;;
41946;SDS011;27638;42.184;24.848;2022-12-29T06:14:56;61.78;;;20.75;;
41946;SDS011;27638;42.184;24.848;2022-12-29T06:17:22;57.28;;;19.73;;
41946;SDS011;27638;42.184;24.848;2022-12-29T06:19:47;36.72;;;18.85;;
41946;SDS011;27638;42.184;24.848;2022-12-29T06:22:13;43.08;;;18.70;;
41946;SDS011;27638;42.184;24.848;2022-12-29T06:24:38;71.22;;;28.75;;
41946;SDS011;27638;42.184;24.848;2022-12-29T06:27:04;68.75;;;27.17;;
41946;SDS011;27638;42.184;24.848;2022-12-29T06:29:30;55.20;;;25.25;;
41946;SDS011;27638;42.184;24.848;2022-12-29T06:31:55;112.80;;;34.63;;
41946;SDS011;27638;42.184;24.848;2022-12-29T06:34:24;88.28;;;31.88;;
41946;SDS011;27638;42.184;24.848;2022-12-29T06:36:50;70.82;;;31.60;;
41946;SDS011;27638;42.184;24.848;2022-12-29T06:39:16;72.50;;;34.80;;
41946;SDS011;27638;42.184;24.848;2022-12-29T06:41:41;77.75;;;28.00;;
41946;SDS011;27638;42.184;24.848;2022-12-29T06:44:07;65.38;;;27.83;;
41946;SDS011;27638;42.184;24.848;2022-12-29T06:46:32;64.20;;;23.83;;
41946;SDS011;27638;42.184;24.848;2022-12-29T06:48:58;64.07;;;23.58;;
41946;SDS011;27638;42.184;24.848;2022-12-29T06:51:23;81.80;;;26.20;;
41946;SDS011;27638;42.184;24.848;2022-12-29T06:53:48;79.15;;;29.73;;
41946;SDS011;27638;42.184;24.848;2022-12-29T06:56:14;79.53;;;37.58;;
41946;SDS011;27638;42.184;24.848;2022-12-29T06:58:39;109.00;;;48.38;;
41946;SDS011;27638;42.184;24.848;2022-12-29T07:01:05;117.47;;;47.90;;
41946;SDS011;27638;42.184;24.848;2022-12-29T07:03:30;118.20;;;48.45;;
41946;SDS011;27638;42.184;24.848;2022-12-29T07:05:56;77.63;;;32.92;;
41946;SDS011;27638;42.184;24.848;2022-12-29T07:08:23;52.03;;;25.75;;
41946;SDS011;27638;42.184;24.848;2022-12-29T07:10:48;45.90;;;20.02;;
41946;SDS011;27638;42.184;24.848;2022-12-29T07:13:14;51.78;;;23.65;;
41946;SDS011;27638;42.184;24.848;2022-12-29T07:15:39;61.65;;;27.25;;
41946;SDS011;27638;42.184;24.848;2022-12-29T07:18:05;39.22;;;21.70;;
41946;SDS011;27638;42.184;24.848;2022-12-29T07:20:30;48.80;;;22.00;;
41946;SDS011;27638;42.184;24.848;2022-12-29T07:22:56;47.92;;;20.67;;
41946;SDS011;27638;42.184;24.848;2022-12-29T07:25:22;57.90;;;27.58;;
41946;SDS011;27638;42.184;24.848;2022-12-29T07:27:48;52.00;;;28.48;;
41946;SDS011;27638;42.184;24.848;2022-12-29T07:30:13;45.00;;;26.20;;
41946;SDS011;27638;42.184;24.848;2022-12-29T07:32:39;55.00;;;22.45;;
41946;SDS011;27638;42.184;24.848;2022-12-29T07:35:05;54.15;;;22.00;;
41946;SDS011;27638;42.184;24.848;2022-12-29T07:37:31;65.75;;;25.50;;
41946;SDS011;27638;42.184;24.848;2022-12-29T07:39:56;68.32;;;24.55;;
41946;SDS011;27638;42.184;24.848;2022-12-29T07:42:22;51.38;;;24.67;;
41946;SDS011;27638;42.184;24.848;2022-12-29T07:44:48;49.15;;;25.90;;
41946;SDS011;27638;42.184;24.848;2022-12-29T07:47:13;55.40;;;25.35;;
41946;SDS011;27638;42.184;24.848;2022-12-29T07:49:38;61.13;;;25.27;;
41946;SDS011;27638;42.184;24.848;2022-12-29T07:52:04;49.60;;;23.60;;
41946;SDS011;27638;42.184;24.848;2022-12-29T07:54:29;52.35;;;26.02;;
41946;SDS011;27638;42.184;24.848;2022-12-29T07:56:55;56.78;;;30.50;;
41946;SDS011;27638;42.184;24.848;2022-12-29T07:59:20;72.30;;;36.17;;
41946;SDS011;27638;42.184;24.848;2022-12-29T08:01:46;81.38;;;37.55;;
41946;SDS011;27638;42.184;24.848;2022-12-29T08:04:11;63.80;;;34.47;;
41946;SDS011;27638;42.184;24.848;2022-12-29T08:06:37;68.88;;;36.28;;
41946;SDS011;27638;42.184;24.848;2022-12-29T08:09:03;63.78;;;33.58;;
41946;SDS011;27638;42.184;24.848;2022-12-29T08:11:28;49.85;;;32.88;;
41946;SDS011;27638;42.184;24.848;2022-12-29T08:13:54;52.72;;;30.95;;
41946;SDS011;27638;42.184;24.848;2022-12-29T08:16:19;54.70;;;30.02;;
41946;SDS011;27638;42.184;24.848;2022-12-29T08:18:44;53.70;;;28.55;;
41946;SDS011;27638;42.184;24.848;2022-12-29T08:21:10;47.03;;;28.38;;
41946;SDS011;27638;42.184;24.848;2022-12-29T08:23:36;43.85;;;24.67;;
41946;SDS011;27638;42.184;24.848;2022-12-29T08:26:04;41.83;;;24.50;;
41946;SDS011;27638;42.184;24.848;2022-12-29T08:28:31;42.42;;;25.80;;
41946;SDS011;27638;42.184;24.848;2022-12-29T08:30:58;46.05;;;27.70;;
41946;SDS011;27638;42.184;24.848;2022-12-29T08:33:25;42.08;;;24.95;;
41946;SDS011;27638;42.184;24.848;2022-12-29T08:35:51;44.60;;;27.75;;
41946;SDS011;27638;42.184;24.848;2022-12-29T08:38:16;43.97;;;25.70;;
41946;SDS011;27638;42.184;24.848;2022-12-29T08:40:43;44.25;;;26.27;;
41946;SDS011;27638;42.184;24.848;2022-12-29T08:43:08;45.65;;;26.10;;
41946;SDS011;27638;42.184;24.848;2022-12-29T08:45:34;41.05;;;25.92;;
41946;SDS011;27638;42.184;24.848;2022-12-29T08:47:59;39.35;;;23.40;;
41946;SDS011;27638;42.184;24.848;2022-12-29T08:50:25;41.15;;;23.58;;
41946;SDS011;27638;42.184;24.848;2022-12-29T08:52:50;37.80;;;24.23;;
41946;SDS011;27638;42.184;24.848;2022-12-29T08:55:16;39.53;;;23.27;;
41946;SDS011;27638;42.184;24.848;2022-12-29T08:57:41;33.55;;;21.95;;
41946;SDS011;27638;42.184;24.848;2022-12-29T09:00:07;33.63;;;22.15;;
41946;SDS011;27638;42.184;24.848;2022-12-29T09:02:33;36.72;;;22.15;;
41946;SDS011;27638;42.184;24.848;2022-12-29T09:04:58;36.08;;;22.70;;
41946;SDS011;27638;42.184;24.848;2022-12-29T09:07:25;35.85;;;21.90;;
41946;SDS011;27638;42.184;24.848;2022-12-29T09:09:50;35.28;;;19.95;;
41946;SDS011;27638;42.184;24.848;2022-12-29T09:12:16;34.55;;;20.60;;
41946;SDS011;27638;42.184;24.848;2022-12-29T09:14:42;33.85;;;21.00;;
41946;SDS011;27638;42.184;24.848;2022-12-29T09:17:09;35.40;;;22.30;;
41946;SDS011;27638;42.184;24.848;2022-12-29T09:19:54;33.13;;;20.48;;
41946;SDS011;27638;42.184;24.848;2022-12-29T09:22:19;32.55;;;21.65;;
41946;SDS011;27638;42.184;24.848;2022-12-29T09:24:45;33.85;;;22.23;;
41946;SDS011;27638;42.184;24.848;2022-12-29T09:27:10;32.75;;;21.73;;
41946;SDS011;27638;42.184;24.848;2022-12-29T09:29:35;31.50;;;20.00;;
41946;SDS011;27638;42.184;24.848;2022-12-29T09:32:01;29.83;;;19.70;;
41946;SDS011;27638;42.184;24.848;2022-12-29T09:34:26;32.78;;;20.05;;
41946;SDS011;27638;42.184;24.848;2022-12-29T09:36:52;33.72;;;20.52;;
41946;SDS011;27638;42.184;24.848;2022-12-29T09:39:17;35.83;;;20.73;;
41946;SDS011;27638;42.184;24.848;2022-12-29T09:41:46;32.47;;;19.67;;
41946;SDS011;27638;42.184;24.848;2022-12-29T09:47:12;30.58;;;18.27;;
41946;SDS011;27638;42.184;24.848;2022-12-29T09:52:13;27.05;;;17.73;;
41946;SDS011;27638;42.184;24.848;2022-12-29T09:57:21;25.40;;;16.10;;
41946;SDS011;27638;42.184;24.848;2022-12-29T09:59:50;29.63;;;16.50;;
41946;SDS011;27638;42.184;24.848;2022-12-29T10:05:19;30.85;;;19.27;;
41946;SDS011;27638;42.184;24.848;2022-12-29T10:07:46;29.60;;;17.77;;
41946;SDS011;27638;42.184;24.848;2022-12-29T10:10:35;29.42;;;18.30;;
41946;SDS011;27638;42.184;24.848;2022-12-29T10:16:20;29.85;;;19.05;;
41946;SDS011;27638;42.184;24.848;2022-12-29T10:19:22;29.02;;;17.80;;
41946;SDS011;27638;42.184;24.848;2022-12-29T10:24:38;32.17;;;19.95;;
41946;SDS011;27638;42.184;24.848;2022-12-29T10:27:05;30.00;;;18.85;;
41946;SDS011;27638;42.184;24.848;2022-12-29T10:29:37;29.50;;;18.58;;
41946;SDS011;27638;42.184;24.848;2022-12-29T10:32:21;31.38;;;19.13;;
41946;SDS011;27638;42.184;24.848;2022-12-29T10:35:05;33.60;;;20.48;;
41946;SDS011;27638;42.184;24.848;2022-12-29T10:37:43;31.48;;;20.02;;
41946;SDS011;27638;42.184;24.848;2022-12-29T10:43:30;30.35;;;19.33;;
41946;SDS011;27638;42.184;24.848;2022-12-29T10:46:11;31.13;;;19.30;;
41946;SDS011;27638;42.184;24.848;2022-12-29T10:48:40;30.52;;;18.85;;
41946;SDS011;27638;42.184;24.848;2022-12-29T10:51:05;34.83;;;19.77;;
41946;SDS011;27638;42.184;24.848;2022-12-29T10:53:46;30.52;;;19.52;;
41946;SDS011;27638;42.184;24.848;2022-12-29T10:57:03;29.42;;;18.08;;
41946;SDS011;27638;42.184;24.848;2022-12-29T11:01:50;26.70;;;18.85;;
41946;SDS011;27638;42.184;24.848;2022-12-29T11:07:16;30.52;;;17.92;;
41946;SDS011;27638;42.184;24.848;2022-12-29T11:09:44;29.63;;;17.65;;
41946;SDS011;27638;42.184;24.848;2022-12-29T11:12:20;32.38;;;16.85;;
41946;SDS011;27638;42.184;24.848;2022-12-29T11:17:57;25.55;;;15.75;;
41946;SDS011;27638;42.184;24.848;2022-12-29T11:22:52;21.60;;;14.02;;
41946;SDS011;27638;42.184;24.848;2022-12-29T11:25:17;26.00;;;16.38;;
41946;SDS011;27638;42.184;24.848;2022-12-29T11:27:54;26.65;;;15.35;;
41946;SDS011;27638;42.184;24.848;2022-12-29T11:30:30;28.38;;;15.63;;
41946;SDS011;27638;42.184;24.848;2022-12-29T11:32:57;27.98;;;16.15;;
41946;SDS011;27638;42.184;24.848;2022-12-29T11:35:30;30.75;;;18.27;;
41946;SDS011;27638;42.184;24.848;2022-12-29T11:37:58;29.60;;;18.00;;
41946;SDS011;27638;42.184;24.848;2022-12-29T11:40:25;32.25;;;18.35;;
41946;SDS011;27638;42.184;24.848;2022-12-29T11:42:52;28.17;;;17.70;;
41946;SDS011;27638;42.184;24.848;2022-12-29T11:45:26;28.88;;;17.90;;
41946;SDS011;27638;42.184;24.848;2022-12-29T11:48:16;27.40;;;18.80;;
41946;SDS011;27638;42.184;24.848;2022-12-29T11:50:48;26.77;;;17.88;;
41946;SDS011;27638;42.184;24.848;2022-12-29T11:55:53;22.98;;;14.77;;
41946;SDS011;27638;42.184;24.848;2022-12-29T11:58:27;25.60;;;16.05;;
41946;SDS011;27638;42.184;24.848;2022-12-29T12:00:58;28.52;;;17.90;;
41946;SDS011;27638;42.184;24.848;2022-12-29T12:03:29;28.55;;;17.55;;
41946;SDS011;27638;42.184;24.848;2022-12-29T12:05:59;28.50;;;18.23;;
41946;SDS011;27638;42.184;24.848;2022-12-29T12:10:59;29.65;;;18.20;;
41946;SDS011;27638;42.184;24.848;2022-12-29T12:13:33;27.00;;;18.38;;
41946;SDS011;27638;42.184;24.848;2022-12-29T12:16:06;27.75;;;17.02;;
41946;SDS011;27638;42.184;24.848;2022-12-29T12:18:39;28.52;;;16.80;;
41946;SDS011;27638;42.184;24.848;2022-12-29T12:21:32;29.27;;;17.48;;
41946;SDS011;27638;42.184;24.848;2022-12-29T12:24:16;31.33;;;19.30;;
41946;SDS011;27638;42.184;24.848;2022-12-29T12:26:51;29.95;;;18.35;;
41946;SDS011;27638;42.184;24.848;2022-12-29T12:29:25;31.10;;;19.35;;
41946;SDS011;27638;42.184;24.848;2022-12-29T12:34:44;38.17;;;21.70;;
41946;SDS011;27638;42.184;24.848;2022-12-29T12:37:26;28.17;;;16.80;;
41946;SDS011;27638;42.184;24.848;2022-12-29T12:42:54;28.38;;;17.55;;
41946;SDS011;27638;42.184;24.848;2022-12-29T12:56:45;30.20;;;17.52;;
41946;SDS011;27638;42.184;24.848;2022-12-29T13:04:57;26.95;;;17.38;;
41946;SDS011;27638;42.184;24.848;2022-12-29T13:18:41;25.88;;;16.55;;
41946;SDS011;27638;42.184;24.848;2022-12-29T13:26:31;26.38;;;17.05;;
41946;SDS011;27638;42.184;24.848;2022-12-29T13:29:12;26.92;;;17.20;;
41946;SDS011;27638;42.184;24.848;2022-12-29T13:31:56;27.70;;;16.25;;
41946;SDS011;27638;42.184;24.848;2022-12-29T13:37:33;23.77;;;15.75;;
41946;SDS011;27638;42.184;24.848;2022-12-29T13:40:17;25.70;;;16.00;;
41946;SDS011;27638;42.184;24.848;2022-12-29T13:42:47;28.42;;;16.38;;
41946;SDS011;27638;42.184;24.848;2022-12-29T13:45:15;29.83;;;16.83;;
41946;SDS011;27638;42.184;24.848;2022-12-29T13:50:40;28.90;;;15.95;;
41946;SDS011;27638;42.184;24.848;2022-12-29T13:53:27;29.75;;;15.25;;
41946;SDS011;27638;42.184;24.848;2022-12-29T13:56:10;22.30;;;14.45;;
41946;SDS011;27638;42.184;24.848;2022-12-29T14:01:35;29.77;;;17.07;;
41946;SDS011;27638;42.184;24.848;2022-12-29T14:04:30;26.00;;;16.38;;
41946;SDS011;27638;42.184;24.848;2022-12-29T14:07:02;26.80;;;17.23;;
41946;SDS011;27638;42.184;24.848;2022-12-29T14:17:36;25.98;;;16.85;;
41946;SDS011;27638;42.184;24.848;2022-12-29T14:20:05;25.23;;;16.30;;
41946;SDS011;27638;42.184;24.848;2022-12-29T14:22:55;24.80;;;16.20;;
41946;SDS011;27638;42.184;24.848;2022-12-29T14:28:30;28.58;;;17.95;;
41946;SDS011;27638;42.184;24.848;2022-12-29T14:31:00;27.73;;;17.30;;
41946;SDS011;27638;42.184;24.848;2022-12-29T14:33:31;30.77;;;18.35;;
41946;SDS011;27638;42.184;24.848;2022-12-29T14:36:33;27.30;;;16.77;;
41946;SDS011;27638;42.184;24.848;2022-12-29T14:38:51;28.05;;;16.65;;
41946;SDS011;27638;42.184;24.848;2022-12-29T14:41:18;26.13;;;14.48;;
41946;SDS011;27638;42.184;24.848;2022-12-29T14:44:21;22.73;;;13.98;;
41946;SDS011;27638;42.184;24.848;2022-12-29T14:46:45;25.02;;;14.85;;
41946;SDS011;27638;42.184;24.848;2022-12-29T14:49:19;21.17;;;14.57;;
41946;SDS011;27638;42.184;24.848;2022-12-29T14:51:47;23.20;;;14.52;;
41946;SDS011;27638;42.184;24.848;2022-12-29T14:57:07;23.48;;;14.13;;
41946;SDS011;27638;42.184;24.848;2022-12-29T14:59:41;24.25;;;15.65;;
41946;SDS011;27638;42.184;24.848;2022-12-29T15:02:13;25.08;;;16.27;;
41946;SDS011;27638;42.184;24.848;2022-12-29T15:04:43;24.48;;;16.35;;
41946;SDS011;27638;42.184;24.848;2022-12-29T15:07:11;27.25;;;16.63;;
41946;SDS011;27638;42.184;24.848;2022-12-29T15:09:38;28.95;;;18.90;;
41946;SDS011;27638;42.184;24.848;2022-12-29T15:15:00;26.40;;;17.55;;
41946;SDS011;27638;42.184;24.848;2022-12-29T15:17:33;27.17;;;17.77;;
41946;SDS011;27638;42.184;24.848;2022-12-29T15:22:50;40.78;;;22.75;;
41946;SDS011;27638;42.184;24.848;2022-12-29T15:28:01;81.95;;;40.83;;
41946;SDS011;27638;42.184;24.848;2022-12-29T15:30:29;84.00;;;42.08;;
41946;SDS011;27638;42.184;24.848;2022-12-29T15:32:55;67.55;;;37.55;;
41946;SDS011;27638;42.184;24.848;2022-12-29T15:37:52;74.88;;;41.05;;
41946;SDS011;27638;42.184;24.848;2022-12-29T15:40:22;87.72;;;47.83;;
41946;SDS011;27638;42.184;24.848;2022-12-29T15:42:56;82.65;;;46.38;;
41946;SDS011;27638;42.184;24.848;2022-12-29T15:45:25;65.57;;;40.63;;
41946;SDS011;27638;42.184;24.848;2022-12-29T15:47:57;69.50;;;37.90;;
41946;SDS011;27638;42.184;24.848;2022-12-29T15:52:54;60.15;;;35.88;;
41946;SDS011;27638;42.184;24.848;2022-12-29T15:55:54;68.97;;;36.45;;
41946;SDS011;27638;42.184;24.848;2022-12-29T15:58:22;54.60;;;32.97;;
41946;SDS011;27638;42.184;24.848;2022-12-29T16:00:52;47.38;;;27.15;;
41946;SDS011;27638;42.184;24.848;2022-12-29T16:03:21;46.97;;;29.35;;
41946;SDS011;27638;42.184;24.848;2022-12-29T16:05:53;43.45;;;26.50;;
41946;SDS011;27638;42.184;24.848;2022-12-29T16:08:29;42.05;;;24.02;;
41946;SDS011;27638;42.184;24.848;2022-12-29T16:11:02;42.20;;;23.35;;
41946;SDS011;27638;42.184;24.848;2022-12-29T16:13:33;40.40;;;23.08;;
41946;SDS011;27638;42.184;24.848;2022-12-29T16:16:13;43.25;;;23.73;;
41946;SDS011;27638;42.184;24.848;2022-12-29T16:18:54;45.60;;;24.75;;
41946;SDS011;27638;42.184;24.848;2022-12-29T16:21:28;44.70;;;26.95;;
41946;SDS011;27638;42.184;24.848;2022-12-29T16:24:01;54.40;;;32.70;;
41946;SDS011;27638;42.184;24.848;2022-12-29T16:26:32;59.80;;;33.83;;
41946;SDS011;27638;42.184;24.848;2022-12-29T16:28:58;60.65;;;35.55;;
41946;SDS011;27638;42.184;24.848;2022-12-29T16:31:34;55.47;;;34.97;;
41946;SDS011;27638;42.184;24.848;2022-12-29T16:41:59;45.63;;;27.42;;
41946;SDS011;27638;42.184;24.848;2022-12-29T16:44:26;46.90;;;28.35;;
41946;SDS011;27638;42.184;24.848;2022-12-29T16:47:01;41.85;;;23.77;;
41946;SDS011;27638;42.184;24.848;2022-12-29T16:49:45;43.15;;;25.15;;
41946;SDS011;27638;42.184;24.848;2022-12-29T16:54:55;54.35;;;30.92;;
41946;SDS011;27638;42.184;24.848;2022-12-29T16:57:25;56.95;;;32.30;;
41946;SDS011;27638;42.184;24.848;2022-12-29T17:00:05;46.35;;;27.73;;
41946;SDS011;27638;42.184;24.848;2022-12-29T17:02:32;41.90;;;24.20;;
41946;SDS011;27638;42.184;24.848;2022-12-29T17:05:11;50.63;;;26.88;;
41946;SDS011;27638;42.184;24.848;2022-12-29T17:07:37;65.65;;;36.78;;
41946;SDS011;27638;42.184;24.848;2022-12-29T17:10:04;82.68;;;44.67;;